createdAt,value
2019-02-12T00:02:07.883Z,36.90
2019-02-12T00:04:34.970Z,56.87
2019-02-12T00:07:03.257Z,42.43
2019-02-12T00:09:30.330Z,46.07
2019-02-12T00:11:57.447Z,37.50
2019-02-12T00:14:24.574Z,32.90
2019-02-12T00:16:51.688Z,54.37
2019-02-12T00:19:18.863Z,43.57
2019-02-12T00:21:46.169Z,30.97
2019-02-12T00:24:13.565Z,36.07
2019-02-12T00:26:40.644Z,46.03
2019-02-12T00:29:07.931Z,28.70
2019-02-12T00:31:35.018Z,28.17
2019-02-12T00:34:02.077Z,39.70
2019-02-12T00:36:29.162Z,23.20
2019-02-12T00:38:56.202Z,30.43
2019-02-12T00:41:23.333Z,46.47
2019-02-12T00:43:50.428Z,38.80
2019-02-12T00:46:17.482Z,30.80
2019-02-12T00:48:44.663Z,29.63
2019-02-12T00:51:17.583Z,45.13
2019-02-12T00:53:40.799Z,33.07
2019-02-12T00:56:07.925Z,37.77
2019-02-12T00:58:35.047Z,41.70
2019-02-12T01:01:02.083Z,31.43
2019-02-12T01:03:29.147Z,31.40
2019-02-12T01:05:56.414Z,30.00
2019-02-12T01:08:23.469Z,38.83
2019-02-12T01:10:50.593Z,37.10
2019-02-12T01:13:18.943Z,36.67
2019-02-12T01:15:46.100Z,30.00
2019-02-12T01:18:13.207Z,35.07
2019-02-12T01:20:40.249Z,34.03
2019-02-12T01:23:07.313Z,34.60
2019-02-12T01:25:34.416Z,41.67
2019-02-12T01:28:01.466Z,29.60
2019-02-12T01:30:28.520Z,42.37
2019-02-12T01:32:55.701Z,41.87
2019-02-12T01:35:22.821Z,29.53
2019-02-12T01:37:49.902Z,36.20
2019-02-12T01:40:17.001Z,41.27
2019-02-12T01:42:44.187Z,44.00
2019-02-12T01:45:12.229Z,30.80
2019-02-12T01:47:39.311Z,30.30
2019-02-12T01:50:07.960Z,36.00
2019-02-12T01:52:35.059Z,36.33
2019-02-12T01:55:02.145Z,35.97
2019-02-12T01:57:29.185Z,33.07
2019-02-12T01:59:56.259Z,24.80
2019-02-12T02:02:23.338Z,37.57
2019-02-12T02:04:50.396Z,42.50
2019-02-12T02:07:17.493Z,41.57
2019-02-12T02:09:44.542Z,46.67
2019-02-12T02:12:11.611Z,35.23
2019-02-12T02:14:38.690Z,45.73
2019-02-12T02:17:05.787Z,36.87
2019-02-12T02:19:32.835Z,42.67
2019-02-12T02:21:59.929Z,44.33
2019-02-12T02:24:26.983Z,40.77
2019-02-12T02:26:54.148Z,30.83
2019-02-12T02:29:21.273Z,46.97
2019-02-12T02:31:48.328Z,37.03
2019-02-12T02:34:15.382Z,41.60
2019-02-12T02:36:42.579Z,28.17
2019-02-12T02:39:09.628Z,58.13
2019-02-12T02:41:36.717Z,39.27
2019-02-12T02:44:05.576Z,35.60
2019-02-12T02:46:32.645Z,42.20
2019-02-12T02:48:59.745Z,39.87
2019-02-12T02:51:26.860Z,40.70
2019-02-12T02:53:53.968Z,37.27
2019-02-12T02:56:21.018Z,34.57
2019-02-12T02:58:48.100Z,41.87
2019-02-12T03:01:15.166Z,51.03
2019-02-12T03:03:42.243Z,45.20
2019-02-12T03:06:09.282Z,42.30
2019-02-12T03:08:36.392Z,39.83
2019-02-12T03:11:03.484Z,42.63
2019-02-12T03:13:30.524Z,44.50
2019-02-12T03:15:57.572Z,36.90
2019-02-12T03:18:24.653Z,35.43
2019-02-12T03:20:51.716Z,35.17
2019-02-12T03:23:18.803Z,29.97
2019-02-12T03:25:45.864Z,47.20
2019-02-12T03:28:12.947Z,43.70
2019-02-12T03:30:40.122Z,37.80
2019-02-12T03:33:08.631Z,31.60
2019-02-12T03:35:35.696Z,44.53
2019-02-12T03:38:02.812Z,39.00
2019-02-12T03:41:15.323Z,42.77
2019-02-12T03:43:42.417Z,36.17
2019-02-12T03:46:09.483Z,40.03
2019-02-12T03:48:36.586Z,42.20
2019-02-12T03:51:03.654Z,43.43
2019-02-12T03:53:32.513Z,55.50
2019-02-12T03:55:59.573Z,44.70
2019-02-12T03:58:26.665Z,54.93
2019-02-12T04:00:53.762Z,54.77
2019-02-12T04:03:20.846Z,58.27
2019-02-12T04:05:47.950Z,45.77
2019-02-12T04:08:15.138Z,51.80
2019-02-12T04:10:42.228Z,41.60
2019-02-12T04:13:09.717Z,53.83
2019-02-12T04:15:37.003Z,52.27
2019-02-12T04:18:04.096Z,52.60
2019-02-12T04:20:31.139Z,52.40
2019-02-12T04:22:58.207Z,56.03
2019-02-12T04:25:25.455Z,48.23
2019-02-12T04:27:52.490Z,56.87
2019-02-12T04:30:19.531Z,51.77
2019-02-12T04:32:48.427Z,62.83
2019-02-12T04:35:16.678Z,52.93
2019-02-12T04:37:43.788Z,57.23
2019-02-12T04:40:11.040Z,55.37
2019-02-12T04:42:38.102Z,45.60
2019-02-12T04:45:06.354Z,49.37
2019-02-12T04:47:33.555Z,41.40
2019-02-12T04:50:00.611Z,49.07
2019-02-12T04:52:31.888Z,50.80
2019-02-12T04:54:56.670Z,47.43
2019-02-12T04:57:23.932Z,38.47
2019-02-12T04:59:50.966Z,53.93
2019-02-12T05:02:18.264Z,45.17
2019-02-12T05:04:45.271Z,49.37
2019-02-12T05:07:12.327Z,39.10
2019-02-12T05:09:41.537Z,63.70
2019-02-12T05:12:08.595Z,53.27
2019-02-12T05:14:35.677Z,45.47
2019-02-12T05:17:02.980Z,40.30
2019-02-12T05:19:30.020Z,40.33
2019-02-12T05:21:57.104Z,43.17
2019-02-12T05:24:24.229Z,46.43
2019-02-12T05:26:51.374Z,41.10
2019-02-12T05:29:18.582Z,48.07
2019-02-12T05:31:45.721Z,49.30
2019-02-12T05:34:12.812Z,47.67
2019-02-12T05:36:39.885Z,36.00
2019-02-12T05:39:07.808Z,48.90
2019-02-12T05:41:34.879Z,49.57
2019-02-12T05:44:01.938Z,49.00
2019-02-12T05:46:29.035Z,48.60
2019-02-12T05:48:56.139Z,44.73
2019-02-12T05:51:23.233Z,51.43
2019-02-12T05:53:50.426Z,43.77
2019-02-12T05:56:17.605Z,44.27
2019-02-12T05:58:44.662Z,53.13
2019-02-12T06:01:11.721Z,50.10
2019-02-12T06:03:38.866Z,53.83
2019-02-12T06:06:06.028Z,48.13
2019-02-12T06:08:33.094Z,44.57
2019-02-12T06:11:00.209Z,53.03
2019-02-12T06:13:27.302Z,49.87
2019-02-12T06:15:54.833Z,48.90
2019-02-12T06:18:21.887Z,46.67
2019-02-12T06:20:49.006Z,59.90
2019-02-12T06:23:16.087Z,42.80
2019-02-12T06:25:43.196Z,51.03
2019-02-12T06:28:10.274Z,47.87
2019-02-12T06:30:37.357Z,48.97
2019-02-12T06:33:07.612Z,42.57
2019-02-12T06:35:33.439Z,42.17
2019-02-12T06:38:00.490Z,54.93
2019-02-12T06:40:27.779Z,44.90
2019-02-12T06:42:54.890Z,38.93
2019-02-12T06:45:22.012Z,49.83
2019-02-12T06:47:49.126Z,39.87
2019-02-12T06:50:16.191Z,51.83
2019-02-12T06:52:43.723Z,47.83
2019-02-12T06:55:11.781Z,47.43
2019-02-12T06:57:39.674Z,45.13
2019-02-12T07:00:07.754Z,41.13
2019-02-12T07:03:09.258Z,37.53
2019-02-12T07:05:37.123Z,46.27
2019-02-12T07:08:38.780Z,47.83
2019-02-12T07:11:16.902Z,53.00
2019-02-12T07:14:15.819Z,41.47
2019-02-12T07:17:15.967Z,48.77
2019-02-12T07:20:06.171Z,50.30
2019-02-12T07:23:21.193Z,52.03
2019-02-12T07:26:45.859Z,59.17
2019-02-12T07:29:26.304Z,40.07
2019-02-12T07:32:44.068Z,47.63
2019-02-12T07:36:00.930Z,57.63
2019-02-12T07:38:49.359Z,54.80
2019-02-12T07:41:58.160Z,52.87
2019-02-12T07:44:50.931Z,47.27
2019-02-12T07:47:54.909Z,56.13
2019-02-12T07:50:54.336Z,46.40
2019-02-12T07:54:31.095Z,55.47
2019-02-12T07:57:32.668Z,52.70
2019-02-12T08:00:40.768Z,52.80
2019-02-12T08:03:48.040Z,51.37
2019-02-12T08:06:52.897Z,52.33
2019-02-12T08:10:05.422Z,51.50
2019-02-12T08:13:15.117Z,53.73
2019-02-12T08:16:16.424Z,51.77
2019-02-12T08:19:37.582Z,44.10
2019-02-12T08:22:51.901Z,50.00
2019-02-12T08:25:34.315Z,52.10
2019-02-12T08:28:45.217Z,57.90
2019-02-12T08:31:51.278Z,48.80
2019-02-12T08:34:56.133Z,48.33
2019-02-12T08:37:56.775Z,53.27
2019-02-12T08:41:02.783Z,48.10
2019-02-12T08:44:24.307Z,44.37
2019-02-12T08:47:38.930Z,46.73
2019-02-12T08:50:43.536Z,58.87
2019-02-12T08:53:51.729Z,46.57
2019-02-12T08:57:03.778Z,53.27
2019-02-12T08:59:50.809Z,49.80
2019-02-12T09:02:45.936Z,62.97
2019-02-12T09:05:37.419Z,49.73
2019-02-12T09:08:47.123Z,59.50
2019-02-12T09:12:17.127Z,50.30
2019-02-12T09:15:24.760Z,52.93
2019-02-12T09:18:21.208Z,66.07
2019-02-12T09:21:18.218Z,68.90
2019-02-12T09:24:35.884Z,59.30
2019-02-12T09:27:56.781Z,65.67
2019-02-12T09:31:23.721Z,83.20
2019-02-12T09:34:31.617Z,76.37
2019-02-12T09:37:22.768Z,77.37
2019-02-12T09:40:18.640Z,72.93
2019-02-12T09:43:04.718Z,72.47
2019-02-12T09:46:28.628Z,64.93
2019-02-12T09:49:32.288Z,70.53
2019-02-12T09:52:33.452Z,67.37
2019-02-12T09:55:31.355Z,72.77
2019-02-12T09:58:40.197Z,77.97
2019-02-12T10:01:34.816Z,65.43
2019-02-12T10:04:40.532Z,68.93
2019-02-12T10:07:39.140Z,61.07
2019-02-12T10:10:46.183Z,64.20
2019-02-12T10:13:31.460Z,63.70
2019-02-12T10:16:28.714Z,61.30
2019-02-12T10:19:29.884Z,68.47
2019-02-12T10:22:31.582Z,51.73
2019-02-12T10:25:02.697Z,56.97
2019-02-12T10:28:06.157Z,63.53
2019-02-12T10:30:57.996Z,67.57
2019-02-12T10:33:31.114Z,56.70
2019-02-12T10:35:58.181Z,60.13
2019-02-12T10:38:25.308Z,62.93
2019-02-12T10:40:52.357Z,60.73
2019-02-12T10:43:19.407Z,64.70
2019-02-12T10:45:46.469Z,71.23
2019-02-12T10:48:13.585Z,69.60
2019-02-12T10:50:40.642Z,60.23
2019-02-12T10:53:09.062Z,58.13
2019-02-12T10:55:36.160Z,59.60
2019-02-12T10:58:03.234Z,49.97
2019-02-12T11:00:30.412Z,59.77
2019-02-12T11:02:57.507Z,59.43
2019-02-12T11:05:24.551Z,54.87
2019-02-12T11:07:51.613Z,46.17
2019-02-12T11:10:18.734Z,40.67
2019-02-12T11:12:45.773Z,49.87
2019-02-12T11:15:13.013Z,50.00
2019-02-12T11:17:40.107Z,48.50
2019-02-12T11:20:07.238Z,52.87
2019-02-12T11:22:34.269Z,42.90
2019-02-12T11:25:01.417Z,44.80
2019-02-12T11:27:48.108Z,37.30
2019-02-12T11:30:15.358Z,36.53
2019-02-12T11:32:42.422Z,35.60
2019-02-12T11:35:09.594Z,40.27
2019-02-12T11:37:36.685Z,33.60
2019-02-12T11:40:04.552Z,42.57
2019-02-12T11:42:31.629Z,37.03
2019-02-12T11:44:58.737Z,30.20
2019-02-12T11:47:25.821Z,36.07
2019-02-12T11:49:52.887Z,33.40
2019-02-12T11:52:20.023Z,35.97
2019-02-12T11:54:47.750Z,29.37
2019-02-12T11:57:15.921Z,30.80
2019-02-12T11:59:43.230Z,29.43
2019-02-12T12:02:10.283Z,32.43
2019-02-12T12:04:37.344Z,34.40
2019-02-12T12:07:04.536Z,34.07
2019-02-12T12:09:31.708Z,36.90
2019-02-12T12:11:58.796Z,34.70
2019-02-12T12:14:25.891Z,36.43
2019-02-12T12:16:52.991Z,31.70
2019-02-12T12:19:20.049Z,37.10
2019-02-12T12:21:47.217Z,27.83
2019-02-12T12:24:14.401Z,30.10
2019-02-12T12:26:41.448Z,28.67
2019-02-12T12:29:08.534Z,27.60
2019-02-12T12:31:35.624Z,23.40
2019-02-12T12:34:02.759Z,29.30
2019-02-12T12:36:29.848Z,37.07
2019-02-12T12:38:56.945Z,30.20
2019-02-12T12:41:24.003Z,32.20
2019-02-12T12:43:51.059Z,26.97
2019-02-12T12:46:18.181Z,34.57
2019-02-12T12:48:45.253Z,27.37
2019-02-12T12:51:12.332Z,34.17
2019-02-12T12:53:39.422Z,28.77
2019-02-12T12:56:06.502Z,23.70
2019-02-12T12:58:33.570Z,31.23
2019-02-12T13:01:00.935Z,27.03
2019-02-12T13:03:28.297Z,25.77
2019-02-12T13:05:55.438Z,33.40
2019-02-12T13:08:22.676Z,25.60
2019-02-12T13:10:57.239Z,36.50
2019-02-12T13:13:24.602Z,33.43
2019-02-12T13:15:51.664Z,35.13
2019-02-12T13:18:18.870Z,36.63
2019-02-12T13:20:45.987Z,29.30
2019-02-12T13:23:13.049Z,26.13
2019-02-12T13:25:40.093Z,25.20
2019-02-12T13:28:07.488Z,34.53
2019-02-12T13:30:34.723Z,29.10
2019-02-12T13:33:01.768Z,29.90
2019-02-12T13:35:28.863Z,23.63
2019-02-12T13:37:55.923Z,26.73
2019-02-12T13:40:22.982Z,28.83
2019-02-12T13:42:50.055Z,25.87
2019-02-12T13:45:17.128Z,31.07
2019-02-12T13:47:45.360Z,23.87
2019-02-12T13:50:12.544Z,27.50
2019-02-12T13:52:39.606Z,30.40
2019-02-12T13:55:06.789Z,32.40
2019-02-12T13:57:34.009Z,28.17
2019-02-12T14:00:01.083Z,26.10
2019-02-12T14:02:28.160Z,24.93
2019-02-12T14:04:55.257Z,29.47
2019-02-12T14:07:22.342Z,29.17
2019-02-12T14:09:49.471Z,24.67
2019-02-12T14:12:16.562Z,31.27
2019-02-12T14:14:45.759Z,28.90
2019-02-12T14:17:12.835Z,30.63
2019-02-12T14:19:39.929Z,30.93
2019-02-12T14:22:06.981Z,28.33
2019-02-12T14:24:34.021Z,26.20
2019-02-12T14:27:01.126Z,28.03
2019-02-12T14:29:28.193Z,30.87
2019-02-12T14:31:55.277Z,27.97
2019-02-12T14:34:22.392Z,25.57
2019-02-12T14:36:49.462Z,28.90
2019-02-12T14:39:16.520Z,27.53
2019-02-12T14:41:43.625Z,30.03
2019-02-12T14:44:10.695Z,23.37
2019-02-12T14:46:43.282Z,25.40
2019-02-12T14:49:10.389Z,28.40
2019-02-12T14:51:37.453Z,25.00
2019-02-12T14:54:26.181Z,30.23
2019-02-12T14:56:53.269Z,26.17
2019-02-12T14:59:22.407Z,24.43
2019-02-12T15:01:49.653Z,28.50
2019-02-12T15:04:17.518Z,21.73
2019-02-12T15:06:44.671Z,24.37
2019-02-12T15:09:12.887Z,30.13
2019-02-12T15:11:40.065Z,20.90
2019-02-12T15:14:07.170Z,26.90
2019-02-12T15:16:34.232Z,23.17
2019-02-12T15:19:01.319Z,29.50
2019-02-12T15:21:28.413Z,26.20
2019-02-12T15:23:55.590Z,25.43
2019-02-12T15:26:22.662Z,19.10
2019-02-12T15:28:51.086Z,20.70
2019-02-12T15:31:18.282Z,28.27
2019-02-12T15:33:45.348Z,26.97
2019-02-12T15:36:12.560Z,24.90
2019-02-12T15:38:39.618Z,28.40
2019-02-12T15:41:06.740Z,22.40
2019-02-12T15:43:33.867Z,23.97
2019-02-12T15:46:00.935Z,27.23
2019-02-12T15:48:28.058Z,26.27
2019-02-12T15:50:55.191Z,21.57
2019-02-12T15:53:22.398Z,24.60
2019-02-12T15:55:51.294Z,27.10
2019-02-12T15:58:18.520Z,25.93
2019-02-12T16:00:45.592Z,24.67
2019-02-12T16:03:12.672Z,28.53
2019-02-12T16:05:39.827Z,28.07
2019-02-12T16:08:08.885Z,28.63
2019-02-12T16:10:37.516Z,28.40
2019-02-12T16:13:05.066Z,30.23
2019-02-12T16:15:32.153Z,27.57
2019-02-12T16:18:00.221Z,27.00
2019-02-12T16:20:29.087Z,27.53
2019-02-12T16:22:57.670Z,31.07
2019-02-12T16:25:24.796Z,32.73
2019-02-12T16:27:51.899Z,26.87
2019-02-12T16:30:19.011Z,28.90
2019-02-12T16:32:46.166Z,26.80
2019-02-12T16:35:13.986Z,27.43
2019-02-12T16:37:41.106Z,23.87
2019-02-12T16:40:09.150Z,27.33
2019-02-12T16:42:36.262Z,25.57
2019-02-12T16:45:04.078Z,27.83
2019-02-12T16:47:31.218Z,30.17
2019-02-12T16:49:59.665Z,26.50
2019-02-12T16:52:26.947Z,29.80
2019-02-12T16:54:54.079Z,25.43
2019-02-12T16:57:21.320Z,24.47
2019-02-12T16:59:48.394Z,25.27
2019-02-12T17:02:15.479Z,30.00
2019-02-12T17:04:42.571Z,29.87
2019-02-12T17:07:10.589Z,22.43
2019-02-12T17:09:37.751Z,26.37
2019-02-12T17:12:04.782Z,27.17
2019-02-12T17:14:32.189Z,27.90
2019-02-12T17:16:59.260Z,23.43
2019-02-12T17:19:26.379Z,22.40
2019-02-12T17:21:53.515Z,26.07
2019-02-12T17:24:20.635Z,24.97
2019-02-12T17:26:47.724Z,23.00
2019-02-12T17:29:14.804Z,29.13
2019-02-12T17:31:41.870Z,27.60
2019-02-12T17:34:09.135Z,28.17
2019-02-12T17:36:36.194Z,29.40
2019-02-12T17:39:05.020Z,27.13
2019-02-12T17:41:32.113Z,28.77
2019-02-12T17:43:59.178Z,22.87
2019-02-12T17:46:26.318Z,26.13
2019-02-12T17:48:53.885Z,27.27
2019-02-12T17:51:20.990Z,29.00
2019-02-12T17:53:48.103Z,27.63
2019-02-12T17:56:15.233Z,23.77
2019-02-12T17:58:42.309Z,33.00
2019-02-12T18:01:12.402Z,25.83
2019-02-12T18:03:39.567Z,27.47
2019-02-12T18:06:06.732Z,26.43
2019-02-12T18:08:33.927Z,45.90
2019-02-12T18:11:01.268Z,30.03
2019-02-12T18:13:31.217Z,27.27
2019-02-12T18:15:58.296Z,30.77
2019-02-12T18:18:25.630Z,25.00
2019-02-12T18:20:52.724Z,26.10
2019-02-12T18:23:19.820Z,27.97
2019-02-12T18:25:46.963Z,30.87
2019-02-12T18:28:14.094Z,30.57
2019-02-12T18:30:41.150Z,28.87
2019-02-12T18:33:08.250Z,29.40
2019-02-12T18:35:35.342Z,22.87
2019-02-12T18:38:04.436Z,26.50
2019-02-12T18:40:31.575Z,24.77
2019-02-12T18:42:58.765Z,27.40
2019-02-12T18:45:25.864Z,28.43
2019-02-12T18:47:52.988Z,27.80
2019-02-12T18:53:52.260Z,27.20
2019-02-12T18:56:19.425Z,23.17
2019-02-12T18:58:48.297Z,26.17
2019-02-12T19:01:15.512Z,27.50
2019-02-12T19:03:42.647Z,30.93
2019-02-12T19:06:09.828Z,26.03
2019-02-12T19:08:36.985Z,27.40
2019-02-12T19:11:04.169Z,25.80
2019-02-12T19:13:31.388Z,22.53
2019-02-12T19:15:58.615Z,25.97
2019-02-12T19:18:26.547Z,31.20
2019-02-12T19:20:53.839Z,25.10
2019-02-12T19:23:20.998Z,29.20
2019-02-12T19:30:24.643Z,28.20
2019-02-12T19:32:51.780Z,26.27
2019-02-12T19:35:18.842Z,23.53
2019-02-12T19:37:46.011Z,24.80
2019-02-12T19:40:13.264Z,22.30
2019-02-12T19:42:40.364Z,26.60
2019-02-12T19:45:08.266Z,26.00
2019-02-12T19:47:35.332Z,27.73
2019-02-12T19:50:02.530Z,27.07
2019-02-12T19:52:29.656Z,27.27
2019-02-12T19:54:56.767Z,29.13
2019-02-12T19:57:23.895Z,27.07
2019-02-12T19:59:50.996Z,33.07
2019-02-12T20:02:18.086Z,26.57
2019-02-12T20:04:45.286Z,32.03
2019-02-12T20:07:12.458Z,29.57
2019-02-12T20:09:39.653Z,27.50
2019-02-12T20:12:06.727Z,28.17
2019-02-12T20:14:34.042Z,27.10
2019-02-12T20:17:01.152Z,24.90
2019-02-12T20:19:29.606Z,28.60
2019-02-12T20:21:56.722Z,34.53
2019-02-12T20:24:23.781Z,29.07
2019-02-12T20:26:51.020Z,27.90
2019-02-12T20:29:18.143Z,24.33
2019-02-12T20:31:45.190Z,25.73
2019-02-12T20:34:12.367Z,27.73
2019-02-12T20:36:39.712Z,30.80
2019-02-12T20:39:06.769Z,29.53
2019-02-12T20:41:33.880Z,34.40
2019-02-12T20:44:01.081Z,31.00
2019-02-12T20:47:21.666Z,28.63
2019-02-12T20:49:48.802Z,31.77
2019-02-12T20:52:15.920Z,26.63
2019-02-12T20:54:45.859Z,31.10
2019-02-12T20:57:14.918Z,27.27
2019-02-12T20:59:41.945Z,28.03
2019-02-12T21:02:09.016Z,26.63
2019-02-12T21:04:36.227Z,28.47
2019-02-12T21:07:03.256Z,32.07
2019-02-12T21:09:30.303Z,32.37
2019-02-12T21:11:57.442Z,28.43
2019-02-12T21:14:24.608Z,36.83
2019-02-12T21:16:51.842Z,29.10
2019-02-12T21:19:55.907Z,32.87
2019-02-12T21:22:23.000Z,29.33
2019-02-12T21:24:50.086Z,32.80
2019-02-12T21:27:23.147Z,32.80
2019-02-12T21:29:47.971Z,32.37
2019-02-12T21:32:15.095Z,30.00
2019-02-12T21:34:48.255Z,30.97
2019-02-12T21:37:15.320Z,36.17
2019-02-12T21:39:42.432Z,29.37
2019-02-12T21:42:09.528Z,31.87
2019-02-12T21:44:36.664Z,31.90
2019-02-12T21:47:03.734Z,31.97
2019-02-12T21:49:48.464Z,34.23
2019-02-12T21:52:15.520Z,35.53
2019-02-12T21:54:42.603Z,35.13
2019-02-12T21:57:09.684Z,31.77
2019-02-12T21:59:36.770Z,34.27
2019-02-12T22:02:03.916Z,31.30
2019-02-12T22:04:31.122Z,32.43
2019-02-12T22:06:58.211Z,30.30
2019-02-12T22:09:25.357Z,35.87
2019-02-12T22:11:53.550Z,34.17
2019-02-12T22:14:20.711Z,37.90
2019-02-12T22:16:47.767Z,32.27
2019-02-12T22:19:15.036Z,38.73
2019-02-12T22:21:42.089Z,34.00
2019-02-12T22:24:09.326Z,35.30
2019-02-12T22:26:36.547Z,33.37
2019-02-12T22:29:03.674Z,34.50
2019-02-12T22:31:30.749Z,37.17
2019-02-12T22:34:17.162Z,36.17
2019-02-12T22:36:44.224Z,35.87
2019-02-12T22:39:11.413Z,32.90
2019-02-12T22:41:38.534Z,40.93
2019-02-12T22:44:06.034Z,36.57
2019-02-12T22:46:33.155Z,35.63
2019-02-12T22:49:00.382Z,31.97
2019-02-12T22:51:27.469Z,34.03
2019-02-12T22:53:54.569Z,33.87
2019-02-12T22:56:21.652Z,35.77
2019-02-12T22:58:48.753Z,36.73
2019-02-12T23:01:16.563Z,36.47
2019-02-12T23:03:43.666Z,34.27
2019-02-12T23:06:10.782Z,31.77
2019-02-12T23:08:37.829Z,39.77
2019-02-12T23:11:05.061Z,41.83
2019-02-12T23:13:32.766Z,37.43
2019-02-12T23:16:07.291Z,36.17
2019-02-12T23:18:34.350Z,34.33
2019-02-12T23:21:01.430Z,33.83
2019-02-12T23:23:28.497Z,38.07
2019-02-12T23:25:55.623Z,39.37
2019-02-12T23:28:22.696Z,43.03
2019-02-12T23:30:49.809Z,40.80
2019-02-12T23:33:17.070Z,32.73
2019-02-12T23:35:44.147Z,39.33
2019-02-12T23:38:11.237Z,40.40
2019-02-12T23:40:38.558Z,39.97
2019-02-12T23:43:05.658Z,33.53
2019-02-12T23:45:32.809Z,33.87
2019-02-12T23:47:59.865Z,38.33
2019-02-12T23:50:26.970Z,33.27
2019-02-12T23:53:11.428Z,34.57
2019-02-12T23:55:38.504Z,38.53
2019-02-12T23:58:06.248Z,34.30
